Погода Иванцовона неделю

Витебская область, Белоруссия

23 - 29 мая
  • 23мая
    Сегодня
    +13°
    +26°
    Небольшая облачность
    ВремяПогодаТемператураВлажностьДавлениеВетер, м/сВероятность осадков
    00:00Практически безоблачно+15°C91 %753 мм1.3 м/с2 %
    03:00Ясно и безоблачно+14°C94 %753 мм1.3 м/с2 %
    06:00Ясно и безоблачно+14°C93 %754 мм1.9 м/с2 %
    09:00Небольшая облачность+19°C79 %755 мм2.5 м/с5 %
    12:00Практически безоблачно+23°C65 %755 мм3.5 м/с15 %
    15:00Небольшая облачность+25°C56 %755 мм4.0 м/с14 %
    18:00Небольшая облачность, возможен дождь с грозой+22°C75 %756 мм2.8 м/с41 %
    21:00Небольшая облачность+20°C74 %756 мм2.2 м/с4 %
  • 24мая
    Пятница
    +11°
    +25°
    Ясно и безоблачно
    ВремяПогодаТемператураВлажностьДавлениеВетер, м/сВероятность осадков
    00:00Облачно с прояснениями+16°C79 %757 мм1.9 м/с2 %
    03:00Облачно с прояснениями+14°C64 %757 мм1.9 м/с2 %
    06:00Практически безоблачно+13°C67 %758 мм1.9 м/с2 %
    09:00Ясно и безоблачно+17°C60 %759 мм2.6 м/с2 %
    12:00Ясно и безоблачно+23°C51 %759 мм3.5 м/с2 %
    15:00Ясно и безоблачно+24°C45 %758 мм3.7 м/с2 %
    18:00Ясно и безоблачно+23°C46 %758 мм3.1 м/с2 %
    21:00Ясно и безоблачно+19°C62 %758 мм2.2 м/с2 %
  • 25мая
    Суббота
    +11°
    +26°
    Ясно и безоблачно
    ВремяПогодаТемператураВлажностьДавлениеВетер, м/сВероятность осадков
    00:00Ясно и безоблачно+16°C63 %758 мм1.8 м/с2 %
    03:00Ясно и безоблачно+13°C71 %758 мм1.3 м/с2 %
    06:00Ясно и безоблачно+12°C75 %758 мм1.3 м/с2 %
    09:00Ясно и безоблачно+18°C65 %758 мм2.0 м/с2 %
    12:00Ясно и безоблачно+23°C50 %758 мм3.0 м/с1 %
    15:00Ясно и безоблачно+25°C43 %757 мм3.1 м/с4 %
    18:00Практически безоблачно+24°C45 %756 мм2.5 м/с12 %
    21:00Практически безоблачно+20°C72 %756 мм1.1 м/с5 %
  • 26мая
    Воскресенье
    +12°
    +26°
    Ясно и безоблачно
    ВремяПогодаТемператураВлажностьДавлениеВетер, м/сВероятность осадков
    00:00Ясно и безоблачно+15°C76 %756 мм0.9 м/с2 %
    03:00Ясно и безоблачно+13°C79 %756 мм0.7 м/с2 %
    06:00Ясно и безоблачно+13°C81 %757 мм0.8 м/с3 %
    09:00Ясно и безоблачно+18°C62 %757 мм0.9 м/с3 %
    12:00Ясно и безоблачно+23°C43 %758 мм2.1 м/с2 %
    15:00Ясно и безоблачно+25°C41 %757 мм2.1 м/с4 %
    18:00Ясно и безоблачно+25°C39 %756 мм1.4 м/с5 %
    21:00Практически безоблачно+21°C45 %756 мм0.6 м/с2 %
  • 27мая
    Понедельник
    +12°
    +27°
    Практически безоблачно
    ВремяПогодаТемператураВлажностьДавлениеВетер, м/сВероятность осадков
    00:00Ясно и безоблачно+14°C61 %757 мм0.3 м/с2 %
    03:00Ясно и безоблачно+12°C85 %757 мм0.5 м/с2 %
    06:00Ясно и безоблачно+13°C80 %757 мм0.3 м/с3 %
    09:00Ясно и безоблачно+20°C65 %758 мм0.7 м/с2 %
    12:00Практически безоблачно+25°C39 %758 мм2.0 м/с14 %
    15:00Практически безоблачно+26°C38 %757 мм2.1 м/с24 %
    18:00Практически безоблачно+25°C42 %757 мм1.6 м/с26 %
    21:00Практически безоблачно+21°C64 %756 мм1.1 м/с9 %
Мы используем cookies
Соглашаюсь